Time;durP1;ratioP1;P1;durP2;ratioP2;P2;SDS_P1;SDS_P2;PMS_P1;PMS_P2;Temp;Humidity;BMP_temperature;BMP_pressure;BME280_temperature;BME280_humidity;BME280_pressure;Samples;Min_cycle;Max_cycle;Signal;HPM_P1;HPM_P2
2022/04/14 00:00:07;;;;;;;7.13;6.43;;;16.30;99.90;;;;;;1039513;28;20477;-69
2022/04/14 00:00:37;;;;;;;6.68;6.07;;;16.30;99.90;;;;;;1039494;28;20078;-69
2022/04/14 00:01:08;;;;;;;6.80;6.03;;;16.30;99.90;;;;;;1039729;28;20095;-69
2022/04/14 00:01:38;;;;;;;5.73;5.23;;;16.30;99.90;;;;;;1039670;28;20018;-68
2022/04/14 00:02:09;;;;;;;7.17;6.47;;;16.20;99.90;;;;;;1039820;28;20025;-69
2022/04/14 00:02:40;;;;;;;6.87;6.27;;;16.20;99.90;;;;;;1039673;28;20105;-68
2022/04/14 00:03:11;;;;;;;6.93;6.22;;;16.20;99.90;;;;;;1039802;28;20417;-67
2022/04/14 00:03:41;;;;;;;7.20;6.50;;;16.20;99.90;;;;;;1039728;28;20349;-68
2022/04/14 00:04:12;;;;;;;7.27;6.63;;;16.20;99.90;;;;;;1039469;28;20179;-67
2022/04/14 00:04:43;;;;;;;6.57;5.90;;;16.20;99.90;;;;;;1035047;28;20265;-68
2022/04/14 00:05:13;;;;;;;7.83;7.03;;;16.20;99.90;;;;;;1035293;28;20022;-67
2022/04/14 00:05:44;;;;;;;7.73;6.97;;;16.20;99.90;;;;;;1035524;28;20022;-68
2022/04/14 00:06:15;;;;;;;7.60;6.90;;;16.20;99.90;;;;;;1035154;28;20022;-68
2022/04/14 00:06:45;;;;;;;8.23;7.53;;;16.20;99.90;;;;;;1039603;28;20100;-68
2022/04/14 00:07:16;;;;;;;8.07;7.27;;;16.20;99.90;;;;;;1039350;28;20401;-68
2022/04/14 00:07:47;;;;;;;6.73;6.13;;;16.20;99.90;;;;;;1039450;28;20017;-69
2022/04/14 00:08:18;;;;;;;6.70;6.03;;;16.20;99.90;;;;;;1035104;28;20022;-69
2022/04/14 00:08:52;;;;;;;6.37;5.77;;;16.20;99.90;;;;;;1035443;28;20029;-71
2022/04/14 00:09:22;;;;;;;6.40;5.80;;;16.20;99.90;;;;;;1035502;28;20464;-70
2022/04/14 00:09:53;;;;;;;7.23;6.53;;;16.20;99.90;;;;;;1039691;28;20168;-69
2022/04/14 00:10:24;;;;;;;7.13;6.53;;;16.20;99.90;;;;;;1039455;28;20026;-68
2022/04/14 00:10:54;;;;;;;6.53;5.93;;;16.20;99.90;;;;;;1039373;28;20131;-67
2022/04/14 00:11:25;;;;;;;6.20;5.60;;;16.20;99.90;;;;;;1039205;28;20153;-68
2022/04/14 00:11:56;;;;;;;6.20;5.60;;;16.20;99.90;;;;;;1039288;28;20087;-69
2022/04/14 00:12:26;;;;;;;6.77;6.17;;;16.20;99.90;;;;;;1039432;28;20059;-68
2022/04/14 00:12:57;;;;;;;6.27;5.67;;;16.20;99.90;;;;;;1039488;28;20022;-68
2022/04/14 00:13:27;;;;;;;6.80;6.10;;;16.20;99.90;;;;;;1035376;28;20010;-68
2022/04/14 00:13:58;;;;;;;6.23;5.63;;;16.20;99.90;;;;;;1039398;28;20669;-70
2022/04/14 00:14:29;;;;;;;6.23;5.63;;;16.20;99.90;;;;;;1035302;28;20377;-69
2022/04/14 00:15:00;;;;;;;6.53;5.93;;;16.20;99.90;;;;;;1031227;28;20170;-68
2022/04/14 00:15:31;;;;;;;7.97;7.18;;;16.20;99.90;;;;;;1035300;28;20061;-68
2022/04/14 00:16:02;;;;;;;7.77;7.07;;;16.20;99.90;;;;;;1035686;28;20076;-68
2022/04/14 00:16:32;;;;;;;7.80;6.97;;;16.10;99.90;;;;;;1039245;28;20029;-67
2022/04/14 00:17:03;;;;;;;6.27;5.67;;;16.20;99.90;;;;;;1039462;28;20425;-68
2022/04/14 00:17:34;;;;;;;7.27;6.67;;;16.10;99.90;;;;;;1039184;28;20456;-68
2022/04/14 00:18:05;;;;;;;6.82;6.22;;;16.10;99.90;;;;;;1039904;28;20010;-68
2022/04/14 00:18:36;;;;;;;6.97;6.27;;;16.10;99.90;;;;;;1039006;28;20026;-67
2022/04/14 00:19:07;;;;;;;7.60;6.73;;;16.10;99.90;;;;;;1039565;28;20022;-68
2022/04/14 00:19:39;;;;;;;6.85;6.25;;;16.10;99.90;;;;;;1039208;28;20383;-68
2022/04/14 00:20:10;;;;;;;7.35;6.65;;;16.10;99.90;;;;;;1039629;28;20014;-69
2022/04/14 00:20:41;;;;;;;9.07;8.27;;;16.10;99.90;;;;;;1039525;28;20156;-68
2022/04/14 00:21:11;;;;;;;8.17;7.37;;;16.10;99.90;;;;;;1039869;28;20063;-69
2022/04/14 00:21:42;;;;;;;8.73;7.93;;;16.10;99.90;;;;;;1039047;28;20045;-69
2022/04/14 00:22:12;;;;;;;7.40;6.80;;;16.10;99.90;;;;;;1039622;28;20018;-69
2022/04/14 00:22:43;;;;;;;7.47;6.77;;;16.10;99.90;;;;;;1039127;28;20052;-68
2022/04/14 00:23:14;;;;;;;7.33;6.53;;;16.10;99.90;;;;;;1039481;28;20017;-67
2022/04/14 00:23:44;;;;;;;7.30;6.57;;;16.10;99.90;;;;;;1039199;28;20420;-69
2022/04/14 00:24:15;;;;;;;7.67;7.07;;;16.10;99.90;;;;;;1039229;28;20045;-69
2022/04/14 00:24:45;;;;;;;7.30;6.60;;;16.10;99.90;;;;;;1039363;28;20172;-69
2022/04/14 00:25:16;;;;;;;6.67;6.07;;;16.10;99.90;;;;;;1039214;28;20009;-68
2022/04/14 00:25:47;;;;;;;7.38;6.68;;;16.10;99.90;;;;;;1039441;28;20559;-68
2022/04/14 00:26:17;;;;;;;6.80;6.20;;;16.10;99.90;;;;;;1039257;28;20029;-69
2022/04/14 00:26:48;;;;;;;6.50;5.90;;;16.10;99.90;;;;;;1039515;28;20124;-68
2022/04/14 00:27:19;;;;;;;6.47;5.87;;;16.10;99.90;;;;;;1039186;28;20076;-68
2022/04/14 00:27:50;;;;;;;7.22;6.53;;;16.10;99.90;;;;;;1039580;28;20013;-69
2022/04/14 00:28:20;;;;;;;7.33;6.63;;;16.10;99.90;;;;;;1039290;28;20041;-68
2022/04/14 00:28:51;;;;;;;7.37;6.67;;;16.10;99.90;;;;;;1042385;28;20013;-69
2022/04/14 00:29:21;;;;;;;7.43;6.73;;;16.10;99.90;;;;;;1039205;28;20018;-69
2022/04/14 00:29:52;;;;;;;7.53;6.67;;;16.10;99.90;;;;;;1039603;28;20029;-70
2022/04/14 00:30:23;;;;;;;7.67;6.97;;;16.10;99.90;;;;;;1039115;28;20053;-69
2022/04/14 00:30:54;;;;;;;8.20;7.50;;;16.10;99.90;;;;;;1039865;28;20028;-68
2022/04/14 00:31:24;;;;;;;6.82;6.13;;;16.10;99.90;;;;;;1039163;28;20416;-70
2022/04/14 00:31:55;;;;;;;6.23;5.63;;;16.10;99.90;;;;;;1039226;28;20469;-69
2022/04/14 00:32:26;;;;;;;6.50;5.88;;;16.10;99.90;;;;;;1038642;28;20520;-69
2022/04/14 00:32:57;;;;;;;6.27;5.67;;;16.10;99.90;;;;;;1039058;28;20057;-69
2022/04/14 00:33:27;;;;;;;6.33;5.73;;;16.10;99.90;;;;;;1039261;28;20096;-68
2022/04/14 00:33:58;;;;;;;6.90;6.30;;;16.10;99.90;;;;;;1039374;28;20088;-69
2022/04/14 00:34:28;;;;;;;6.23;5.63;;;16.10;99.90;;;;;;1039255;28;20025;-68
2022/04/14 00:34:59;;;;;;;6.37;5.77;;;16.10;99.90;;;;;;1035133;28;20022;-69
2022/04/14 00:35:29;;;;;;;6.47;5.87;;;16.10;99.90;;;;;;1035276;28;20103;-68
2022/04/14 00:36:00;;;;;;;6.93;6.33;;;16.10;99.90;;;;;;1035539;28;20524;-68
2022/04/14 00:36:33;;;;;;;8.50;7.60;;;16.10;99.90;;;;;;1039263;28;20013;-70
2022/04/14 00:37:04;;;;;;;7.22;6.53;;;16.10;99.90;;;;;;1039376;28;20112;-68
2022/04/14 00:37:34;;;;;;;7.05;6.43;;;16.10;99.90;;;;;;1039323;28;20475;-69
2022/04/14 00:38:05;;;;;;;7.10;6.47;;;16.00;99.90;;;;;;1039355;28;20156;-69
2022/04/14 00:38:36;;;;;;;6.60;5.93;;;16.00;99.90;;;;;;1039217;28;20248;-67
2022/04/14 00:39:09;;;;;;;6.90;6.20;;;16.00;99.90;;;;;;1039800;28;20075;-69
2022/04/14 00:39:39;;;;;;;7.63;6.88;;;16.00;99.90;;;;;;1038846;28;20022;-68
2022/04/14 00:40:11;;;;;;;7.57;6.87;;;16.00;99.90;;;;;;1039550;28;20017;-69
2022/04/14 00:40:41;;;;;;;7.35;6.43;;;16.00;99.90;;;;;;1038818;28;20156;-69
2022/04/14 00:41:12;;;;;;;6.17;5.67;;;16.00;99.90;;;;;;1039503;28;20067;-69
2022/04/14 00:41:43;;;;;;;7.73;7.03;;;16.00;99.90;;;;;;1039101;28;20524;-70
2022/04/14 00:42:14;;;;;;;7.93;6.87;;;16.00;99.90;;;;;;1039563;28;20707;-69
2022/04/14 00:42:44;;;;;;;6.87;6.27;;;16.00;99.90;;;;;;1039418;28;20014;-68
2022/04/14 00:43:16;;;;;;;7.43;6.70;;;16.00;99.90;;;;;;1039681;28;20267;-69
2022/04/14 00:43:52;;;;;;;6.57;5.97;;;16.00;99.90;;;;;;1039151;28;20523;-68
2022/04/14 00:44:23;;;;;;;6.47;5.88;;;16.00;99.90;;;;;;1039343;28;20155;-68
2022/04/14 00:44:53;;;;;;;7.20;6.50;;;16.00;99.90;;;;;;1039270;28;20022;-67
2022/04/14 00:45:24;;;;;;;7.83;7.03;;;16.00;99.90;;;;;;1039389;28;20051;-68
2022/04/14 00:45:54;;;;;;;8.10;7.30;;;16.00;99.90;;;;;;1039551;28;20109;-68
2022/04/14 00:46:25;;;;;;;8.20;7.40;;;16.00;99.90;;;;;;1039756;28;20024;-67
2022/04/14 00:46:56;;;;;;;7.37;6.67;;;16.00;99.90;;;;;;1039052;28;20112;-67
2022/04/14 00:47:29;;;;;;;7.53;6.83;;;16.00;99.90;;;;;;1039248;28;20021;-68
2022/04/14 00:47:59;;;;;;;6.97;6.28;;;16.00;99.90;;;;;;1039212;28;20053;-67
2022/04/14 00:48:31;;;;;;;7.47;6.77;;;16.00;99.90;;;;;;1039350;28;20009;-70
2022/04/14 00:49:04;;;;;;;6.82;6.22;;;16.00;99.90;;;;;;1039250;28;20024;-70
2022/04/14 00:49:36;;;;;;;7.43;6.82;;;16.00;99.90;;;;;;1039651;28;20036;-69
2022/04/14 00:50:07;;;;;;;7.57;6.80;;;16.00;99.90;;;;;;1039287;28;20045;-68
2022/04/14 00:50:37;;;;;;;7.82;7.13;;;16.00;99.90;;;;;;1039586;28;20439;-69
2022/04/14 00:51:08;;;;;;;7.73;7.03;;;16.00;99.90;;;;;;1042139;28;20435;-68
2022/04/14 00:51:39;;;;;;;6.60;6.00;;;16.00;99.90;;;;;;1043378;28;20017;-69
2022/04/14 00:52:10;;;;;;;7.55;6.85;;;16.00;99.90;;;;;;1043517;28;20558;-68
2022/04/14 00:52:45;;;;;;;7.30;6.60;;;16.00;99.90;;;;;;1039121;28;20017;-69
2022/04/14 00:53:16;;;;;;;6.50;5.90;;;15.90;99.90;;;;;;1039305;28;20504;-68
2022/04/14 00:53:47;;;;;;;8.00;7.20;;;15.90;99.90;;;;;;1040166;28;20134;-68
2022/04/14 00:54:18;;;;;;;7.13;6.43;;;15.90;99.90;;;;;;1043357;28;20013;-68
2022/04/14 00:54:48;;;;;;;7.43;6.63;;;15.90;99.90;;;;;;1043775;28;20024;-69
2022/04/14 00:55:19;;;;;;;7.40;6.73;;;15.90;99.90;;;;;;1043728;28;20075;-68
2022/04/14 00:55:51;;;;;;;6.87;6.27;;;15.90;99.90;;;;;;1043306;28;20013;-70
2022/04/14 00:56:21;;;;;;;7.95;6.97;;;15.90;99.90;;;;;;1043372;28;20013;-68
2022/04/14 00:56:52;;;;;;;8.00;7.20;;;15.90;99.90;;;;;;1043360;28;20013;-69
2022/04/14 00:57:23;;;;;;;7.47;6.77;;;15.90;99.90;;;;;;1043278;28;20017;-67
2022/04/14 00:57:53;;;;;;;8.67;7.77;;;15.90;99.90;;;;;;1043383;28;20017;-69
2022/04/14 00:58:24;;;;;;;9.00;7.97;;;15.90;99.90;;;;;;1043504;28;20104;-68
2022/04/14 00:58:54;;;;;;;6.63;6.03;;;15.90;99.90;;;;;;1043077;28;20081;-68
2022/04/14 00:59:26;;;;;;;7.67;6.97;;;15.90;99.90;;;;;;1043942;28;20021;-68
2022/04/14 00:59:56;;;;;;;7.72;6.93;;;15.90;99.90;;;;;;1043004;28;20013;-68
2022/04/14 01:00:27;;;;;;;7.57;6.87;;;15.90;99.90;;;;;;1039736;28;20079;-69
2022/04/14 01:00:58;;;;;;;7.30;6.67;;;15.90;99.90;;;;;;1039395;28;20159;-69
2022/04/14 01:01:28;;;;;;;8.00;7.20;;;15.90;99.90;;;;;;1039687;28;20022;-68
2022/04/14 01:01:59;;;;;;;7.87;7.13;;;15.90;99.90;;;;;;1039012;28;20029;-69
2022/04/14 01:02:30;;;;;;;6.87;6.20;;;15.90;99.90;;;;;;1039196;28;20068;-68
2022/04/14 01:03:01;;;;;;;7.87;7.07;;;15.90;99.90;;;;;;1038969;28;20120;-69
2022/04/14 01:03:34;;;;;;;6.57;5.97;;;15.90;99.90;;;;;;1038960;28;20116;-68
2022/04/14 01:04:04;;;;;;;7.70;6.88;;;15.90;99.90;;;;;;1038967;28;20032;-69
2022/04/14 01:04:36;;;;;;;7.90;7.13;;;15.90;99.90;;;;;;1039118;28;20029;-68
2022/04/14 01:05:07;;;;;;;7.22;6.53;;;15.90;99.90;;;;;;1039006;28;20048;-68
2022/04/14 01:05:38;;;;;;;7.95;7.25;;;15.80;99.90;;;;;;1039612;28;20555;-67
2022/04/14 01:06:09;;;;;;;7.72;7.03;;;15.90;99.90;;;;;;1041938;28;20231;-70
2022/04/14 01:06:40;;;;;;;6.63;6.03;;;15.80;99.90;;;;;;1043197;28;20074;-68
2022/04/14 01:07:10;;;;;;;8.00;6.20;;;15.80;99.90;;;;;;1043225;28;20074;-69
2022/04/14 01:07:44;;;;;;;7.83;7.13;;;15.80;99.90;;;;;;1043354;28;20044;-70
2022/04/14 01:08:20;;;;;;;7.68;6.97;;;15.80;99.90;;;;;;1038882;28;20040;-69
2022/04/14 01:09:41;;;;;;;7.38;6.68;;;15.80;99.90;;;;;;1034922;28;20645;-69
2022/04/14 01:10:12;;;;;;;7.70;6.97;;;15.80;99.90;;;;;;1035319;28;20477;-69
2022/04/14 01:10:48;;;;;;;8.35;7.13;;;15.80;99.90;;;;;;1035437;28;20021;-68
2022/04/14 01:11:19;;;;;;;7.53;6.82;;;15.80;99.90;;;;;;1034902;28;20021;-70
2022/04/14 01:11:52;;;;;;;7.27;6.57;;;15.80;99.90;;;;;;1031270;28;20022;-70
2022/04/14 01:12:24;;;;;;;7.93;7.15;;;15.80;99.90;;;;;;1030687;28;20041;-68
2022/04/14 01:12:54;;;;;;;8.05;7.25;;;15.80;99.90;;;;;;1027867;28;20019;-68
2022/04/14 01:13:25;;;;;;;8.30;6.67;;;15.80;99.90;;;;;;1031560;28;20007;-69
2022/04/14 01:13:56;;;;;;;8.48;7.68;;;15.80;99.90;;;;;;1031480;28;20002;-68
2022/04/14 01:14:35;;;;;;;8.40;7.60;;;15.80;99.90;;;;;;1035209;28;20037;-69
2022/04/14 01:15:12;;;;;;;9.15;8.35;;;15.80;99.90;;;;;;1039451;28;20044;-69
2022/04/14 01:15:46;;;;;;;8.10;7.28;;;15.80;99.90;;;;;;1039224;28;20002;-69
2022/04/14 01:16:17;;;;;;;7.28;6.57;;;15.80;99.90;;;;;;1039659;28;20040;-68
2022/04/14 01:16:47;;;;;;;7.23;6.53;;;15.80;99.90;;;;;;1039071;28;20013;-68
2022/04/14 01:17:18;;;;;;;7.03;6.33;;;15.80;99.90;;;;;;1039102;28;20033;-68
2022/04/14 01:17:48;;;;;;;8.13;7.37;;;15.80;99.90;;;;;;1039132;28;20108;-68
2022/04/14 01:18:19;;;;;;;9.73;8.73;;;15.80;99.90;;;;;;1039342;28;20010;-69
2022/04/14 01:18:49;;;;;;;8.73;7.83;;;15.80;99.90;;;;;;1039457;28;20101;-69
2022/04/14 01:19:20;;;;;;;8.33;7.53;;;15.80;99.90;;;;;;1039596;28;20063;-68
2022/04/14 01:19:50;;;;;;;9.67;8.87;;;15.80;99.90;;;;;;1039460;28;20067;-69
2022/04/14 01:20:21;;;;;;;8.63;7.83;;;15.80;99.90;;;;;;1039684;28;20014;-68
2022/04/14 01:20:52;;;;;;;8.10;7.30;;;15.80;99.90;;;;;;1039352;28;20537;-69
2022/04/14 01:21:27;;;;;;;9.07;8.15;;;15.80;99.90;;;;;;1039454;28;20002;-69
2022/04/14 01:22:08;;;;;;;8.07;7.28;;;15.80;99.90;;;;;;1039504;28;20072;-69
2022/04/14 01:22:56;;;;;;;9.10;8.20;;;15.80;99.90;;;;;;1038910;28;20013;-69
2022/04/14 01:23:42;;;;;;;8.48;7.68;;;15.80;99.90;;;;;;1039220;28;20035;-69
2022/04/14 01:24:14;;;;;;;7.75;7.05;;;15.70;99.90;;;;;;1035482;28;20501;-69
2022/04/14 01:24:44;;;;;;;7.53;6.82;;;15.70;99.90;;;;;;1040526;28;20006;-68
2022/04/14 01:25:15;;;;;;;8.37;7.60;;;15.70;99.90;;;;;;1040836;28;20024;-68
2022/04/14 01:25:47;;;;;;;7.53;6.83;;;15.70;99.90;;;;;;1039229;28;20010;-71
2022/04/14 01:26:19;;;;;;;7.60;6.55;;;15.70;99.90;;;;;;1039052;28;20021;-69
2022/04/14 01:26:50;;;;;;;7.03;6.40;;;15.80;99.90;;;;;;1039070;28;20013;-69
2022/04/14 01:27:20;;;;;;;8.18;7.38;;;15.70;99.90;;;;;;1038973;28;20014;-69
2022/04/14 01:27:51;;;;;;;8.53;7.63;;;15.70;99.90;;;;;;1039274;28;20028;-68
2022/04/14 01:28:21;;;;;;;7.80;7.00;;;15.70;99.90;;;;;;1039096;28;20025;-69
2022/04/14 01:28:52;;;;;;;7.30;6.70;;;15.70;99.90;;;;;;1039096;28;20456;-69
2022/04/14 01:29:24;;;;;;;7.47;6.70;;;15.70;99.90;;;;;;1039002;28;20037;-69
2022/04/14 01:29:55;;;;;;;8.15;7.38;;;15.70;99.90;;;;;;1039152;28;20135;-68
2022/04/14 01:30:25;;;;;;;10.07;7.15;;;15.70;99.90;;;;;;1039483;28;20074;-70
2022/04/14 01:30:56;;;;;;;8.33;7.63;;;15.70;99.90;;;;;;1039578;28;20022;-69
2022/04/14 01:31:26;;;;;;;7.83;7.13;;;15.70;99.90;;;;;;1039483;28;20122;-70
2022/04/14 01:31:58;;;;;;;7.70;7.00;;;15.70;99.90;;;;;;1039498;28;20022;-68
2022/04/14 01:32:29;;;;;;;7.05;6.35;;;15.70;99.90;;;;;;1039615;28;20045;-70
2022/04/14 01:33:00;;;;;;;7.23;6.53;;;15.70;99.90;;;;;;1039191;28;20036;-69
2022/04/14 01:33:30;;;;;;;7.50;6.80;;;15.70;99.90;;;;;;1039107;28;20033;-69
2022/04/14 01:34:00;;;;;;;7.53;6.83;;;15.70;99.90;;;;;;1039294;28;20025;-70
2022/04/14 01:34:31;;;;;;;7.53;6.83;;;15.70;99.90;;;;;;1039057;28;20069;-69
2022/04/14 01:35:02;;;;;;;7.83;7.03;;;15.70;99.90;;;;;;1039672;28;20018;-69
2022/04/14 01:35:32;;;;;;;7.80;7.10;;;15.70;99.90;;;;;;1039385;28;20014;-72
2022/04/14 01:36:03;;;;;;;8.20;7.40;;;15.70;99.90;;;;;;1039258;28;20021;-68
2022/04/14 01:36:34;;;;;;;7.05;6.35;;;15.70;99.90;;;;;;1038964;28;20013;-69
2022/04/14 01:37:05;;;;;;;8.27;7.47;;;15.70;99.90;;;;;;1039233;28;20022;-69
2022/04/14 01:37:35;;;;;;;7.97;7.20;;;15.70;99.90;;;;;;1038947;28;20101;-69
2022/04/14 01:38:06;;;;;;;7.73;7.03;;;15.70;99.90;;;;;;1039339;28;20457;-70
2022/04/14 01:38:38;;;;;;;8.07;7.35;;;15.70;99.90;;;;;;1038924;28;20014;-69
2022/04/14 01:39:10;;;;;;;6.57;5.97;;;15.70;99.90;;;;;;1039412;28;20141;-69
2022/04/14 01:39:41;;;;;;;8.13;7.32;;;15.70;99.90;;;;;;1038734;28;20026;-69
2022/04/14 01:40:12;;;;;;;7.97;7.25;;;15.70;99.90;;;;;;1039447;28;20014;-69
2022/04/14 01:40:42;;;;;;;7.75;7.05;;;15.60;99.90;;;;;;1038828;28;20104;-69
2022/04/14 01:41:13;;;;;;;7.43;6.73;;;15.70;99.90;;;;;;1039309;28;20024;-69
2022/04/14 01:41:44;;;;;;;6.63;6.03;;;15.60;99.90;;;;;;1038903;28;20040;-69
2022/04/14 01:42:14;;;;;;;7.53;6.57;;;15.60;99.90;;;;;;1035142;28;20026;-69
2022/04/14 01:42:45;;;;;;;7.03;6.33;;;15.60;99.90;;;;;;1030972;28;20053;-70
2022/04/14 01:43:15;;;;;;;7.17;6.47;;;15.60;99.90;;;;;;1031186;28;20018;-68
2022/04/14 01:43:46;;;;;;;8.17;7.37;;;15.60;99.90;;;;;;1031007;28;20831;-69
2022/04/14 01:44:17;;;;;;;7.57;6.87;;;15.60;99.90;;;;;;1031886;28;20786;-69
2022/04/14 01:44:48;;;;;;;7.20;6.50;;;15.60;99.90;;;;;;1035954;28;20013;-69
2022/04/14 01:45:19;;;;;;;7.55;6.85;;;15.60;99.90;;;;;;1039953;28;20045;-69
2022/04/14 01:45:51;;;;;;;7.03;6.40;;;15.60;99.90;;;;;;1040037;28;20021;-69
2022/04/14 01:46:21;;;;;;;7.00;6.40;;;15.60;99.90;;;;;;1040298;28;20021;-69
2022/04/14 01:46:52;;;;;;;7.43;6.73;;;15.60;99.90;;;;;;1040357;28;20018;-69
2022/04/14 01:47:22;;;;;;;6.30;5.70;;;15.60;99.90;;;;;;1040361;28;20572;-69
2022/04/14 01:47:53;;;;;;;7.27;6.67;;;15.60;99.90;;;;;;1040368;28;20013;-68
2022/04/14 01:48:24;;;;;;;7.90;6.43;;;15.60;99.90;;;;;;1040216;28;20041;-69
2022/04/14 01:48:54;;;;;;;7.00;6.40;;;15.60;99.90;;;;;;1040197;28;20025;-68
2022/04/14 01:49:25;;;;;;;7.47;6.73;;;15.60;99.90;;;;;;1039865;28;20021;-69
2022/04/14 01:49:56;;;;;;;7.73;7.03;;;15.60;99.90;;;;;;1039948;28;20021;-69
2022/04/14 01:50:26;;;;;;;6.93;6.23;;;15.60;99.90;;;;;;1039908;28;20033;-68
2022/04/14 01:50:57;;;;;;;8.10;7.30;;;15.60;99.90;;;;;;1039911;28;20052;-69
2022/04/14 01:51:28;;;;;;;7.57;6.83;;;15.60;99.90;;;;;;1039762;28;20021;-69
2022/04/14 01:51:58;;;;;;;8.23;7.47;;;15.60;99.90;;;;;;1040075;28;20018;-69
2022/04/14 01:52:29;;;;;;;8.20;7.37;;;15.60;99.90;;;;;;1039895;28;20031;-69
2022/04/14 01:52:59;;;;;;;7.53;6.83;;;15.60;99.90;;;;;;1040377;28;20030;-69
2022/04/14 01:53:30;;;;;;;6.63;6.03;;;15.60;99.90;;;;;;1040120;28;20010;-69
2022/04/14 01:54:01;;;;;;;7.30;6.60;;;15.60;99.90;;;;;;1040406;28;20113;-69
2022/04/14 01:54:31;;;;;;;6.93;6.23;;;15.60;99.90;;;;;;1039712;28;20025;-69
2022/04/14 01:55:03;;;;;;;6.80;6.10;;;15.60;99.90;;;;;;1040118;28;20519;-69
2022/04/14 01:55:34;;;;;;;7.15;6.50;;;15.60;99.90;;;;;;1039684;28;20452;-69
2022/04/14 01:56:04;;;;;;;6.90;6.30;;;15.60;99.90;;;;;;1040154;28;20088;-70
2022/04/14 01:56:35;;;;;;;7.33;6.57;;;15.60;99.90;;;;;;1039758;28;20028;-68
2022/04/14 01:57:06;;;;;;;6.47;5.87;;;15.60;99.90;;;;;;1040158;28;20025;-70
2022/04/14 01:57:36;;;;;;;7.53;6.77;;;15.60;99.90;;;;;;1040039;28;20131;-69
2022/04/14 01:58:07;;;;;;;7.57;6.87;;;15.60;99.90;;;;;;1040669;28;20026;-70
2022/04/14 01:58:38;;;;;;;7.13;6.43;;;15.60;99.90;;;;;;1039501;28;20113;-69
2022/04/14 01:59:09;;;;;;;6.90;6.23;;;15.60;99.90;;;;;;1040271;28;20010;-71
2022/04/14 01:59:40;;;;;;;6.63;6.03;;;15.60;99.90;;;;;;1039582;28;20393;-69
2022/04/14 02:00:13;;;;;;;6.77;6.17;;;15.60;99.90;;;;;;1040026;28;20509;-69
2022/04/14 02:00:43;;;;;;;7.50;6.78;;;15.60;99.90;;;;;;1040000;28;20018;-69
2022/04/14 02:01:14;;;;;;;6.87;6.27;;;15.60;99.90;;;;;;1040198;28;20017;-69
2022/04/14 02:01:44;;;;;;;7.17;6.47;;;15.50;99.90;;;;;;1039770;28;20028;-69
2022/04/14 02:02:15;;;;;;;6.90;6.13;;;15.60;99.90;;;;;;1039923;28;20052;-68
2022/04/14 02:02:45;;;;;;;6.67;6.07;;;15.50;99.90;;;;;;1039625;28;20013;-68
2022/04/14 02:03:16;;;;;;;7.20;6.60;;;15.50;99.90;;;;;;1040030;28;20025;-70
2022/04/14 02:03:47;;;;;;;7.43;6.67;;;15.50;99.90;;;;;;1039778;28;20088;-69
2022/04/14 02:04:18;;;;;;;6.95;6.35;;;15.50;99.90;;;;;;1039996;28;20048;-69
2022/04/14 02:04:48;;;;;;;7.03;6.33;;;15.50;99.90;;;;;;1039753;28;20017;-69
2022/04/14 02:05:19;;;;;;;6.50;5.90;;;15.50;99.90;;;;;;1039582;28;20044;-68
2022/04/14 02:05:49;;;;;;;7.47;6.33;;;15.50;99.90;;;;;;1039845;28;20514;-68
2022/04/14 02:06:20;;;;;;;7.07;6.47;;;15.50;99.90;;;;;;1043857;28;20127;-68
2022/04/14 02:06:51;;;;;;;7.17;6.47;;;15.50;99.90;;;;;;1043793;28;20660;-68
2022/04/14 02:07:21;;;;;;;6.57;5.97;;;15.50;99.90;;;;;;1044007;28;20017;-67
2022/04/14 02:07:52;;;;;;;6.67;6.07;;;15.50;99.90;;;;;;1043784;28;20064;-67
2022/04/14 02:08:22;;;;;;;7.07;6.47;;;15.50;99.90;;;;;;1044294;28;20099;-68
2022/04/14 02:08:53;;;;;;;5.97;5.47;;;15.50;99.90;;;;;;1044161;28;20009;-69
2022/04/14 02:09:23;;;;;;;6.93;6.23;;;15.50;99.90;;;;;;1043654;28;20017;-67
2022/04/14 02:09:54;;;;;;;6.93;6.33;;;15.50;99.90;;;;;;1042805;28;20021;-67
2022/04/14 02:10:25;;;;;;;6.57;5.97;;;15.50;99.90;;;;;;1039848;28;20029;-70
2022/04/14 02:10:55;;;;;;;6.60;5.90;;;15.50;99.90;;;;;;1040300;28;20018;-67
2022/04/14 02:11:26;;;;;;;7.00;6.30;;;15.50;99.90;;;;;;1040160;28;20121;-70
2022/04/14 02:11:56;;;;;;;6.77;6.13;;;15.40;99.90;;;;;;1040281;28;20473;-68
2022/04/14 02:12:27;;;;;;;6.20;5.60;;;15.40;99.90;;;;;;1040089;28;20036;-69
2022/04/14 02:12:59;;;;;;;6.80;6.10;;;15.40;99.90;;;;;;1040292;28;20520;-69
2022/04/14 02:13:33;;;;;;;6.15;5.55;;;15.40;99.90;;;;;;1040166;28;20067;-69
2022/04/14 02:14:04;;;;;;;6.63;6.03;;;15.40;99.90;;;;;;1039859;28;20125;-69
2022/04/14 02:14:35;;;;;;;6.80;6.20;;;15.40;99.90;;;;;;1039572;28;20024;-68
2022/04/14 02:15:06;;;;;;;5.97;5.47;;;15.40;99.90;;;;;;1040094;28;20021;-69
2022/04/14 02:15:36;;;;;;;6.53;5.93;;;15.40;99.90;;;;;;1039527;28;20018;-69
2022/04/14 02:16:07;;;;;;;6.20;5.70;;;15.40;99.90;;;;;;1040095;28;20057;-68
2022/04/14 02:16:37;;;;;;;6.17;5.57;;;15.40;99.90;;;;;;1039640;28;20021;-69
2022/04/14 02:17:08;;;;;;;6.60;6.00;;;15.40;99.90;;;;;;1039922;28;20025;-69
2022/04/14 02:17:38;;;;;;;6.23;5.63;;;15.40;99.90;;;;;;1039508;28;20040;-68
2022/04/14 02:18:09;;;;;;;7.07;6.47;;;15.40;99.90;;;;;;1040233;28;20407;-69
2022/04/14 02:18:39;;;;;;;6.73;6.13;;;15.40;99.90;;;;;;1039591;28;20014;-69
2022/04/14 02:19:10;;;;;;;7.13;6.43;;;15.40;99.90;;;;;;1040261;28;20471;-69
2022/04/14 02:19:41;;;;;;;6.57;5.97;;;15.40;99.90;;;;;;1039544;28;20017;-70
2022/04/14 02:20:11;;;;;;;6.30;5.67;;;15.40;99.90;;;;;;1035991;28;20493;-69
2022/04/14 02:20:42;;;;;;;6.20;5.67;;;15.40;99.90;;;;;;1035537;28;20030;-68
2022/04/14 02:21:12;;;;;;;6.27;5.73;;;15.40;99.90;;;;;;1040608;28;20115;-69
2022/04/14 02:21:43;;;;;;;6.13;5.63;;;15.40;99.90;;;;;;1039436;28;20020;-68
2022/04/14 02:22:14;;;;;;;7.30;6.60;;;15.40;99.90;;;;;;1040547;28;20418;-68
2022/04/14 02:22:44;;;;;;;6.43;5.82;;;15.40;99.90;;;;;;1039893;28;20017;-69
2022/04/14 02:23:15;;;;;;;6.43;5.83;;;15.40;99.90;;;;;;1039825;28;20045;-68
2022/04/14 02:23:46;;;;;;;6.37;5.80;;;15.40;99.90;;;;;;1039773;28;20493;-68
2022/04/14 02:24:17;;;;;;;5.65;5.10;;;15.40;99.90;;;;;;1040059;28;20021;-69
2022/04/14 02:24:47;;;;;;;5.37;4.87;;;15.40;99.90;;;;;;1039575;28;20064;-68
2022/04/14 02:25:18;;;;;;;5.90;5.40;;;15.40;99.90;;;;;;1040470;28;20036;-69
2022/04/14 02:25:48;;;;;;;6.40;5.80;;;15.40;99.90;;;;;;1039539;28;20456;-68
2022/04/14 02:26:19;;;;;;;6.00;5.40;;;15.40;99.90;;;;;;1040119;28;20025;-69
2022/04/14 02:26:49;;;;;;;6.70;6.10;;;15.40;99.90;;;;;;1039833;28;20369;-68
2022/04/14 02:27:21;;;;;;;6.00;5.50;;;15.40;99.90;;;;;;1039934;28;20021;-69
2022/04/14 02:27:52;;;;;;;6.20;5.60;;;15.40;99.90;;;;;;1040063;28;20143;-69
2022/04/14 02:28:22;;;;;;;5.43;4.93;;;15.40;99.90;;;;;;1037037;28;20021;-68
2022/04/14 02:28:54;;;;;;;5.50;5.00;;;15.40;99.90;;;;;;1035499;28;20064;-68
2022/04/14 02:29:25;;;;;;;5.60;5.10;;;15.40;99.90;;;;;;1036096;28;20022;-68
2022/04/14 02:29:55;;;;;;;6.00;5.50;;;15.40;99.90;;;;;;1036057;28;20102;-67
2022/04/14 02:30:26;;;;;;;5.83;5.33;;;15.40;99.90;;;;;;1035928;28;20022;-68
2022/04/14 02:30:57;;;;;;;6.73;5.90;;;15.40;99.90;;;;;;1036024;28;20014;-69
2022/04/14 02:31:28;;;;;;;5.82;5.25;;;15.40;99.90;;;;;;1035985;28;20101;-69
2022/04/14 02:31:58;;;;;;;5.43;4.93;;;15.40;99.90;;;;;;1036083;28;20060;-69
2022/04/14 02:32:29;;;;;;;5.87;5.27;;;15.40;99.90;;;;;;1035988;28;20551;-69
2022/04/14 02:33:03;;;;;;;5.23;4.73;;;15.40;99.90;;;;;;1036171;28;20563;-70
2022/04/14 02:33:34;;;;;;;5.63;5.13;;;15.40;99.90;;;;;;1035962;28;20093;-69
2022/04/14 02:34:04;;;;;;;5.90;5.40;;;15.40;99.90;;;;;;1036286;28;20025;-69
2022/04/14 02:34:35;;;;;;;6.23;5.70;;;15.40;99.90;;;;;;1035968;28;20108;-69
2022/04/14 02:35:05;;;;;;;5.87;5.37;;;15.40;99.90;;;;;;1036272;28;20029;-70
2022/04/14 02:35:36;;;;;;;5.67;5.07;;;15.40;99.90;;;;;;1039402;28;20078;-69
2022/04/14 02:36:06;;;;;;;5.50;5.00;;;15.40;99.90;;;;;;1040211;28;20028;-69
2022/04/14 02:36:37;;;;;;;5.70;5.20;;;15.40;99.90;;;;;;1039525;28;20104;-72
2022/04/14 02:37:08;;;;;;;6.10;5.50;;;15.40;99.90;;;;;;1039977;28;20025;-68
2022/04/14 02:37:38;;;;;;;5.70;5.20;;;15.30;99.90;;;;;;1035707;28;20025;-70
2022/04/14 02:38:09;;;;;;;6.47;5.80;;;15.40;99.90;;;;;;1040021;28;20014;-70
2022/04/14 02:38:43;;;;;;;6.00;5.43;;;15.30;99.90;;;;;;1039482;28;20022;-70
2022/04/14 02:39:14;;;;;;;5.72;5.18;;;15.30;99.90;;;;;;1040175;28;20017;-70
2022/04/14 02:39:44;;;;;;;5.53;5.03;;;15.30;99.90;;;;;;1039060;28;20549;-71
2022/04/14 02:40:15;;;;;;;5.83;5.33;;;15.30;99.90;;;;;;1036193;28;20508;-67
2022/04/14 02:40:45;;;;;;;9.47;6.40;;;15.30;99.90;;;;;;1035696;28;20435;-70
2022/04/14 02:41:16;;;;;;;6.23;5.63;;;15.30;99.90;;;;;;1037365;28;20014;-70
2022/04/14 02:41:46;;;;;;;5.77;5.23;;;15.30;99.90;;;;;;1039909;28;20025;-70
2022/04/14 02:42:17;;;;;;;5.97;5.37;;;15.30;99.90;;;;;;1040506;28;20059;-70
2022/04/14 02:42:47;;;;;;;5.87;5.37;;;15.30;99.90;;;;;;1039734;28;20529;-67